»·PEaware :: AAL808 KSFO-KLAX

AAL808 :: KSFO-KLAX

FLIGHT INFORMATION

Flight Status: Arrived
Operator:
American Airlines
More flights by this operator :: More flights under this callsign
Pilot: Anonymous 17772 (17772)
Aircraft: BOEING 757-300
(B753)
More flights by this aircraft type
Origin: KSFO San Francisco Intl
United States
Destination: KLAX Los Angeles Intl
United States
More flights between these airports :: More routes between these airports
Route: +SSTIK3 EBAYE BURGL IRNMN1
File this flight plan on PilotEdge
Remarks:
Altitude:
(Current/Filed)
190ft
Speed:
(Current/Filed)
300kts
Departed: 13-Jan-18 09:18 AM
Arrived: 13-Jan-18 10:17 AM
Distance/Time
Traveled:
294nm/0:58
Distance/Time
To Go:
Arrived

Flight Plot

Page will automatically refresh every two minutes.

Flight plan parsing failed; only flown route is shown


Map Options




Map Legend


Flown Route
Filed Route
Departure Airport
Arrival Airport
Navaid (VOR, NDB)
Fix

Horizontal Profiles

Position Reports

Time Latitude Longitude Heading Altitude Ground
Speed
13-Jan-18 08:55 37.618825 -122.383625 280 34ft 0kts
13-Jan-18 08:56 37.618825 -122.383625 280 34ft 0kts
13-Jan-18 08:57 37.618825 -122.383625 280 34ft 0kts
13-Jan-18 08:58 37.618825 -122.383625 280 34ft 0kts
13-Jan-18 08:59 37.618825 -122.383625 280 34ft 0kts
13-Jan-18 09:00 37.618825 -122.383625 280 34ft 0kts
13-Jan-18 09:01 37.618825 -122.383625 280 34ft 0kts
13-Jan-18 09:02 37.618825 -122.383625 280 34ft 0kts
13-Jan-18 09:03 37.618825 -122.383625 280 34ft 0kts
13-Jan-18 09:04 37.618825 -122.383625 280 34ft 0kts
13-Jan-18 09:05 37.618825 -122.383625 280 35ft 0kts
13-Jan-18 09:06 37.618501 -122.383265 2 34ft 2kts
13-Jan-18 09:07 37.619122 -122.382817 27 34ft 3kts
13-Jan-18 09:08 37.619203 -122.382764 27 34ft 0kts
13-Jan-18 09:09 37.619203 -122.382764 27 34ft 0kts
13-Jan-18 09:10 37.619203 -122.382764 27 34ft 0kts
13-Jan-18 09:11 37.619203 -122.382764 27 34ft 0kts
13-Jan-18 09:12 37.619203 -122.382764 27 34ft 0kts
13-Jan-18 09:13 37.619203 -122.382764 27 34ft 0kts
13-Jan-18 09:14 37.619203 -122.382764 27 34ft 0kts
13-Jan-18 09:15 37.619203 -122.382764 27 34ft 0kts
13-Jan-18 09:16 37.619203 -122.382764 27 34ft 0kts
13-Jan-18 09:17 37.619203 -122.382764 27 34ft 0kts
13-Jan-18 09:18 37.619203 -122.382764 27 34ft 0kts
13-Jan-18 09:19 37.619203 -122.382764 27 34ft 0kts
13-Jan-18 09:20 37.619205 -122.382762 27 34ft 0kts
13-Jan-18 09:21 37.619115 -122.380755 119 34ft 12kts
13-Jan-18 09:22 37.615459 -122.379450 207 33ft 18kts
13-Jan-18 09:23 37.610362 -122.382825 205 34ft 21kts
13-Jan-18 09:24 37.610506 -122.381122 28 33ft 47kts
13-Jan-18 09:25 37.646725 -122.364013 1 1241ft 189kts
13-Jan-18 09:26 37.705256 -122.381295 301 3871ft 256kts
13-Jan-18 09:27 37.677209 -122.449347 183 7372ft 269kts
13-Jan-18 09:28 37.600730 -122.451092 187 9990ft 290kts
13-Jan-18 09:29 37.518998 -122.467958 188 11535ft 310kts
13-Jan-18 09:30 37.441523 -122.418031 125 13219ft 379kts
13-Jan-18 09:31 37.371122 -122.313897 131 16556ft 402kts
13-Jan-18 09:32 37.294062 -122.208638 132 19577ft 421kts
13-Jan-18 09:33 37.212967 -122.099022 133 22247ft 439kts
13-Jan-18 09:34 37.128627 -121.985486 133 24631ft 456kts
13-Jan-18 09:35 37.041109 -121.868087 134 26832ft 470kts
13-Jan-18 09:36 36.950690 -121.747252 134 28838ft 483kts
13-Jan-18 09:37 36.859836 -121.626284 135 31087ft 482kts
13-Jan-18 09:38 36.768856 -121.505610 135 33245ft 476kts
13-Jan-18 09:39 36.678593 -121.386339 135 33264ft 473kts
13-Jan-18 09:40 36.590503 -121.270342 136 33263ft 472kts
13-Jan-18 09:41 36.500225 -121.151898 135 33254ft 473kts
13-Jan-18 09:42 36.410903 -121.032503 132 33273ft 475kts
13-Jan-18 09:43 36.325046 -120.908843 132 33298ft 475kts
13-Jan-18 09:44 36.238630 -120.785075 132 33309ft 475kts
13-Jan-18 09:45 36.152280 -120.661883 132 33330ft 477kts
13-Jan-18 09:46 36.066890 -120.540499 132 33309ft 477kts
13-Jan-18 09:47 35.980368 -120.417957 132 33326ft 477kts
13-Jan-18 09:48 35.896470 -120.299556 133 33303ft 475kts
13-Jan-18 09:49 35.793444 -120.204352 150 33306ft 472kts
13-Jan-18 09:50 35.681827 -120.119661 150 33266ft 472kts
13-Jan-18 09:51 35.570503 -120.035601 150 33243ft 472kts
13-Jan-18 09:52 35.459000 -119.951683 150 33222ft 470kts
13-Jan-18 09:53 35.347574 -119.868111 150 33269ft 470kts
13-Jan-18 09:54 35.239450 -119.777661 144 33247ft 474kts
13-Jan-18 09:55 35.137786 -119.682961 144 33242ft 472kts
13-Jan-18 09:56 35.035190 -119.587489 144 32441ft 460kts
13-Jan-18 09:57 34.932468 -119.492213 144 29454ft 468kts
13-Jan-18 09:58 34.831661 -119.401392 144 26502ft 449kts
13-Jan-18 09:59 34.736450 -119.316537 145 23858ft 420kts
13-Jan-18 10:00 34.643967 -119.235824 145 22005ft 402kts
13-Jan-18 10:01 34.554701 -119.158711 143 20121ft 389kts
13-Jan-18 10:02 34.468863 -119.082671 143 18280ft 377kts
13-Jan-18 10:03 34.384981 -119.009510 144 16408ft 368kts
13-Jan-18 10:04 34.303571 -118.937396 143 14612ft 356kts
13-Jan-18 10:05 34.225951 -118.866644 142 13038ft 346kts
13-Jan-18 10:06 34.153115 -118.798072 137 12367ft 310kts
13-Jan-18 10:07 34.088761 -118.727791 137 10672ft 314kts
13-Jan-18 10:08 34.031107 -118.656241 106 9481ft 286kts
13-Jan-18 10:09 34.020488 -118.564635 95 8125ft 273kts
13-Jan-18 10:10 34.011956 -118.475578 95 7412ft 253kts
13-Jan-18 10:11 34.020861 -118.395954 77 6578ft 242kts
13-Jan-18 10:12 34.031032 -118.320624 82 5985ft 228kts
13-Jan-18 10:13 34.038825 -118.245723 82 5069ft 222kts
13-Jan-18 10:14 34.046538 -118.172286 82 4005ft 220kts
13-Jan-18 10:15 34.054248 -118.098993 82 3966ft 219kts
13-Jan-18 10:16 34.031974 -118.041633 176 3963ft 221kts
13-Jan-18 10:17 33.996851 -118.093725 251 3962ft 218kts
13-Jan-18 10:18 33.981673 -118.164719 261 3970ft 220kts
13-Jan-18 10:19 33.972419 -118.236899 261 3063ft 219kts
13-Jan-18 10:20 33.963209 -118.297959 259 1982ft 159kts
13-Jan-18 10:21 33.957024 -118.349977 266 862ft 143kts
13-Jan-18 10:22 33.952447 -118.396889 265 201ft 150kts
13-Jan-18 10:23 33.948966 -118.426150 232 118ft 18kts
13-Jan-18 10:24 33.948678 -118.426564 226 117ft 0kts
13-Jan-18 10:25 33.947065 -118.427763 175 113ft 10kts
13-Jan-18 10:26 33.945881 -118.430921 234 108ft 12kts
13-Jan-18 10:27 33.942612 -118.430672 129 102ft 6kts
13-Jan-18 10:28 33.942612 -118.429890 82 102ft 0kts
13-Jan-18 10:29 33.942612 -118.429890 82 102ft 0kts
13-Jan-18 10:30 33.942612 -118.429890 82 102ft 0kts
13-Jan-18 10:31 33.942612 -118.429890 82 102ft 0kts
13-Jan-18 10:32 33.942612 -118.429890 82 102ft 0kts
13-Jan-18 10:33 33.957022 -118.350007 266 861ft 143kts

Navigation Log

Ident Type
Flight plan parsing failed, navigation log unavailable